Time;durP1;ratioP1;P1;durP2;ratioP2;P2;SDS_P1;SDS_P2;PMS_P1;PMS_P2;Temp;Humidity;BMP_temperature;BMP_pressure;BME280_temperature;BME280_humidity;BME280_pressure;Samples;Min_cycle;Max_cycle;Signal;HPM_P1;HPM_P2
2022/03/21 00:02:24;;;;;;;0.00;0.00;;;4.90;56.50;;;;;;5019208;28;20281;-68
2022/03/21 00:04:51;;;;;;;0.00;0.00;;;4.90;59.20;;;;;;5019268;28;20022;-68
2022/03/21 00:07:18;;;;;;;0.00;0.00;;;4.90;57.70;;;;;;5086615;28;20093;-68
2022/03/21 00:09:44;;;;;;;0.10;0.10;;;4.90;56.10;;;;;;5019270;28;20447;-69
2022/03/21 00:12:14;;;;;;;0.00;0.00;;;4.90;60.00;;;;;;5018615;28;20320;-71
2022/03/21 00:14:42;;;;;;;0.10;0.10;;;4.90;56.80;;;;;;5019143;28;20093;-72
2022/03/21 00:17:09;;;;;;;0.00;0.00;;;4.90;58.00;;;;;;5086452;28;20025;-68
2022/03/21 00:19:35;;;;;;;0.15;0.03;;;4.90;56.60;;;;;;5019105;28;20051;-69
2022/03/21 00:22:01;;;;;;;0.00;0.00;;;4.80;60.90;;;;;;5018507;28;20025;-69
2022/03/21 00:24:27;;;;;;;0.00;0.00;;;4.80;56.00;;;;;;5018929;28;20025;-69
2022/03/21 00:26:52;;;;;;;0.00;0.00;;;4.80;57.90;;;;;;5086907;28;20018;-69
2022/03/21 00:29:18;;;;;;;0.00;0.00;;;4.70;57.90;;;;;;5086427;28;20026;-69
2022/03/21 00:31:44;;;;;;;0.00;0.00;;;4.70;60.30;;;;;;5086878;28;20017;-74
2022/03/21 00:34:10;;;;;;;0.00;0.00;;;4.70;59.80;;;;;;5018138;28;20022;-74
2022/03/21 00:36:35;;;;;;;0.00;0.00;;;4.60;57.30;;;;;;5018648;28;20071;-69
2022/03/21 00:39:02;;;;;;;0.00;0.00;;;4.70;55.70;;;;;;5086259;28;20323;-70
2022/03/21 00:41:31;;;;;;;0.00;0.00;;;4.70;56.80;;;;;;5086690;28;20036;-69
2022/03/21 00:43:58;;;;;;;0.00;0.00;;;4.70;57.10;;;;;;5017904;28;20093;-69
2022/03/21 00:46:24;;;;;;;0.03;0.00;;;4.80;55.50;;;;;;5018654;28;20048;-69
2022/03/21 00:48:50;;;;;;;0.00;0.00;;;4.80;58.60;;;;;;5086193;28;20069;-69
2022/03/21 00:51:16;;;;;;;0.00;0.00;;;4.80;56.40;;;;;;5018049;28;20033;-68
2022/03/21 00:53:41;;;;;;;0.00;0.00;;;4.80;60.30;;;;;;5018522;28;20022;-68
2022/03/21 00:56:07;;;;;;;0.00;0.00;;;4.80;55.50;;;;;;5085757;28;20018;-68
2022/03/21 00:58:32;;;;;;;0.00;0.00;;;4.90;55.80;;;;;;5018276;28;20213;-70
2022/03/21 01:00:58;;;;;;;0.00;0.00;;;4.90;57.60;;;;;;5017843;28;20021;-69
2022/03/21 01:03:24;;;;;;;0.00;0.00;;;4.90;57.20;;;;;;5086231;28;20022;-76
2022/03/21 01:05:50;;;;;;;0.00;0.00;;;4.80;57.90;;;;;;5018405;28;20037;-76
2022/03/21 01:08:16;;;;;;;0.00;0.00;;;4.80;56.40;;;;;;5085720;28;20308;-68
2022/03/21 01:10:42;;;;;;;0.00;0.00;;;4.80;59.90;;;;;;5018399;28;20063;-69
2022/03/21 01:13:08;;;;;;;0.00;0.00;;;4.70;56.90;;;;;;5017477;28;20045;-69
2022/03/21 01:15:34;;;;;;;0.00;0.00;;;4.80;56.50;;;;;;5018242;28;20021;-78
2022/03/21 01:18:00;;;;;;;0.00;0.00;;;4.80;57.30;;;;;;5085546;28;20025;-70
2022/03/21 01:20:26;;;;;;;0.00;0.00;;;4.80;56.80;;;;;;5017996;28;20026;-70
2022/03/21 01:22:52;;;;;;;0.00;0.00;;;4.80;58.40;;;;;;5017927;28;20066;-70
2022/03/21 01:25:18;;;;;;;0.00;0.00;;;4.80;57.20;;;;;;5017246;28;20041;-70
2022/03/21 01:27:44;;;;;;;0.00;0.00;;;4.80;57.50;;;;;;5017983;28;20312;-76
2022/03/21 01:30:12;;;;;;;0.00;0.00;;;4.90;56.30;;;;;;5085265;28;20086;-69
2022/03/21 01:32:42;;;;;;;0.00;0.00;;;4.90;56.30;;;;;;5017849;28;20301;-69
2022/03/21 01:35:08;;;;;;;0.00;0.00;;;4.90;59.80;;;;;;5017514;28;20045;-69
2022/03/21 01:37:35;;;;;;;0.00;0.00;;;4.90;58.20;;;;;;5017475;28;20026;-72
2022/03/21 01:40:01;;;;;;;0.00;0.00;;;4.90;56.10;;;;;;5017368;28;20022;-70
2022/03/21 01:42:27;;;;;;;0.00;0.00;;;4.80;59.40;;;;;;5017317;28;20036;-75
2022/03/21 01:44:54;;;;;;;0.00;0.00;;;4.90;55.80;;;;;;5017449;28;20022;-69
2022/03/21 01:47:20;;;;;;;0.00;0.00;;;4.90;56.30;;;;;;5017596;28;20093;-69
2022/03/21 01:49:45;;;;;;;0.00;0.00;;;4.90;56.30;;;;;;5141121;27;20022;-69
2022/03/21 01:52:12;;;;;;;0.00;0.00;;;4.90;58.50;;;;;;5140888;27;20019;-69
2022/03/21 01:57:23;;;;;;;0.00;0.00;;;4.80;58.40;;;;;;5140970;27;20107;-69
2022/03/21 01:59:50;;;;;;;0.00;0.00;;;4.70;58.50;;;;;;5141192;27;20268;-71
2022/03/21 02:02:16;;;;;;;0.00;0.00;;;4.60;61.20;;;;;;5140481;27;20018;-76
2022/03/21 02:04:42;;;;;;;0.00;0.00;;;4.70;58.10;;;;;;5140964;27;20030;-70
2022/03/21 02:07:08;;;;;;;0.00;0.00;;;4.60;59.20;;;;;;5140531;27;20011;-69
2022/03/21 02:09:35;;;;;;;0.00;0.00;;;4.60;62.70;;;;;;5140946;27;20023;-76
2022/03/21 02:12:01;;;;;;;0.00;0.00;;;4.50;62.70;;;;;;5122329;27;20081;-76
2022/03/21 02:14:27;;;;;;;0.00;0.00;;;4.50;62.50;;;;;;5140775;27;20309;-70
2022/03/21 02:16:52;;;;;;;0.00;0.00;;;4.40;61.00;;;;;;5122629;27;20022;-70
2022/03/21 02:19:28;;;;;;;0.00;0.00;;;4.30;60.90;;;;;;5140056;27;20019;-69
2022/03/21 02:22:15;;;;;;;0.00;0.00;;;4.20;63.70;;;;;;5140743;27;20027;-69
2022/03/21 02:24:49;;;;;;;0.00;0.00;;;4.30;61.10;;;;;;5140754;27;20015;-70
2022/03/21 02:27:17;;;;;;;0.00;0.00;;;4.30;59.20;;;;;;5140392;27;20027;-71
2022/03/21 02:29:44;;;;;;;0.00;0.00;;;4.30;61.50;;;;;;5122577;28;20233;-69
2022/03/21 02:32:10;;;;;;;0.00;0.00;;;4.20;62.30;;;;;;5122018;28;20317;-69
2022/03/21 02:34:39;;;;;;;0.00;0.00;;;4.30;61.30;;;;;;5121989;27;20027;-72
2022/03/21 02:37:07;;;;;;;0.00;0.00;;;4.20;62.30;;;;;;5139768;28;20023;-76
2022/03/21 02:39:35;;;;;;;0.00;0.00;;;4.30;58.60;;;;;;5122250;28;20077;-69
2022/03/21 02:42:02;;;;;;;0.10;0.10;;;4.30;59.10;;;;;;5139941;28;20027;-70
2022/03/21 02:44:36;;;;;;;0.00;0.00;;;4.30;61.70;;;;;;5140424;28;20016;-70
2022/03/21 02:47:03;;;;;;;0.00;0.00;;;4.30;63.10;;;;;;5139788;28;20041;-76
2022/03/21 02:49:28;;;;;;;0.00;0.00;;;4.20;63.60;;;;;;5139984;28;20102;-70
2022/03/21 02:51:56;;;;;;;0.00;0.00;;;4.10;64.70;;;;;;5140206;28;20031;-74
2022/03/21 02:54:23;;;;;;;0.00;0.00;;;4.10;64.80;;;;;;5140422;28;20090;-70
2022/03/21 02:56:49;;;;;;;0.00;0.00;;;4.00;64.60;;;;;;5156574;27;20091;-70
2022/03/21 02:59:18;;;;;;;0.00;0.00;;;3.90;63.50;;;;;;5140428;27;20087;-70
2022/03/21 03:01:44;;;;;;;0.00;0.00;;;3.90;64.60;;;;;;5126217;27;20210;-78
2022/03/21 03:04:10;;;;;;;0.00;0.00;;;4.00;60.40;;;;;;5144174;27;20023;-68
2022/03/21 03:06:38;;;;;;;0.00;0.00;;;3.90;64.70;;;;;;5144542;27;20039;-70
2022/03/21 03:09:05;;;;;;;;;;;3.90;64.70;;;;;;5144495;27;20023;-71
2022/03/21 03:11:31;;;;;;;0.00;0.00;;;3.80;65.60;;;;;;5144238;27;19907;-68
2022/03/21 03:13:57;;;;;;;0.00;0.00;;;3.80;63.70;;;;;;5144148;27;20023;-78
2022/03/21 03:16:22;;;;;;;0.00;0.00;;;3.70;66.70;;;;;;5160581;27;20029;-70
2022/03/21 03:18:48;;;;;;;0.00;0.00;;;3.70;62.70;;;;;;5144210;27;20029;-72
2022/03/21 03:21:19;;;;;;;0.00;0.00;;;3.70;63.70;;;;;;5143790;27;20051;-74
2022/03/21 03:23:48;;;;;;;0.00;0.00;;;3.80;60.00;;;;;;5125422;27;20019;-74
2022/03/21 03:26:14;;;;;;;0.00;0.00;;;3.70;60.60;;;;;;5143023;27;20015;-73
2022/03/21 03:28:40;;;;;;;0.00;0.00;;;3.70;64.30;;;;;;5144160;27;20027;-69
2022/03/21 03:31:05;;;;;;;0.00;0.00;;;3.60;64.40;;;;;;5143472;27;20019;-70
2022/03/21 03:33:31;;;;;;;0.00;0.00;;;3.60;65.90;;;;;;5144018;27;20056;-70
2022/03/21 03:35:57;;;;;;;0.00;0.00;;;3.50;66.10;;;;;;5143431;27;20019;-79
2022/03/21 03:38:23;;;;;;;0.00;0.00;;;3.50;66.50;;;;;;5143842;27;20023;-69
2022/03/21 03:40:49;;;;;;;0.00;0.00;;;3.40;66.30;;;;;;5143808;27;20294;-70
2022/03/21 03:43:15;;;;;;;0.00;0.00;;;3.50;63.60;;;;;;5142902;27;20349;-69
2022/03/21 03:45:44;;;;;;;0.00;0.00;;;3.50;66.10;;;;;;5143835;27;20049;-68
2022/03/21 03:48:10;;;;;;;0.00;0.00;;;3.40;64.60;;;;;;5141693;27;20049;-71
2022/03/21 03:50:36;;;;;;;0.00;0.00;;;3.40;64.70;;;;;;5039160;28;20093;-69
2022/03/21 03:53:01;;;;;;;0.00;0.00;;;3.40;65.00;;;;;;5107444;28;20128;-69
2022/03/21 03:55:27;;;;;;;0.00;0.00;;;3.30;64.70;;;;;;5038959;28;20028;-68
2022/03/21 03:57:53;;;;;;;0.00;0.00;;;3.40;64.70;;;;;;5039088;28;20055;-69
2022/03/21 04:00:19;;;;;;;0.00;0.00;;;3.40;65.60;;;;;;5107360;28;20161;-72
2022/03/21 04:05:29;;;;;;;0.00;0.00;;;3.20;67.70;;;;;;5039112;28;20029;-69
2022/03/21 04:07:56;;;;;;;0.00;0.00;;;3.20;68.90;;;;;;5107455;28;20308;-74
2022/03/21 04:10:22;;;;;;;0.00;0.00;;;3.20;68.70;;;;;;5038092;28;20041;-68
2022/03/21 04:12:51;;;;;;;0.00;0.00;;;3.10;69.00;;;;;;5038537;28;20024;-69
2022/03/21 04:15:19;;;;;;;0.00;0.00;;;3.00;69.10;;;;;;5038119;28;20270;-70
2022/03/21 04:17:45;;;;;;;0.00;0.00;;;3.10;66.60;;;;;;5038693;28;20097;-70
2022/03/21 04:20:11;;;;;;;0.00;0.00;;;3.10;68.20;;;;;;5106999;28;20029;-74
2022/03/21 04:22:37;;;;;;;0.00;0.00;;;3.00;69.10;;;;;;5038375;28;20024;-70
2022/03/21 04:25:05;;;;;;;0.00;0.00;;;3.00;69.40;;;;;;5038317;28;20066;-70
2022/03/21 04:27:32;;;;;;;0.00;0.00;;;3.00;70.30;;;;;;5090496;28;20361;-70
2022/03/21 04:29:59;;;;;;;0.00;0.00;;;3.00;71.20;;;;;;5038430;28;20022;-78
2022/03/21 04:32:25;;;;;;;0.00;0.00;;;2.90;71.80;;;;;;5107142;28;20282;-70
2022/03/21 04:34:50;;;;;;;0.00;0.00;;;2.80;71.70;;;;;;5038716;28;20169;-69
2022/03/21 04:37:16;;;;;;;0.00;0.00;;;2.80;71.90;;;;;;5106692;28;20059;-69
2022/03/21 04:39:42;;;;;;;0.00;0.00;;;2.80;70.80;;;;;;5038447;28;20089;-70
2022/03/21 04:42:07;;;;;;;0.00;0.00;;;2.70;70.40;;;;;;5037862;28;20041;-69
2022/03/21 04:44:34;;;;;;;0.00;0.00;;;2.70;71.00;;;;;;5038596;28;20261;-70
2022/03/21 04:47:00;;;;;;;0.00;0.00;;;2.70;71.00;;;;;;5140684;27;20025;-72
2022/03/21 04:49:25;;;;;;;0.00;0.00;;;2.70;71.80;;;;;;5128733;27;20106;-69
2022/03/21 04:51:51;;;;;;;0.00;0.00;;;2.70;72.60;;;;;;5158386;27;20068;-68
2022/03/21 04:54:17;;;;;;;0.00;0.00;;;2.70;71.40;;;;;;5141911;27;20060;-67
2022/03/21 04:56:42;;;;;;;0.00;0.00;;;2.70;72.60;;;;;;5124064;27;20015;-68
2022/03/21 04:59:09;;;;;;;0.00;0.00;;;2.80;71.40;;;;;;5141470;27;20072;-68
2022/03/21 05:01:36;;;;;;;0.00;0.00;;;2.80;69.30;;;;;;5158369;27;20034;-68
2022/03/21 05:04:02;;;;;;;15.88;8.93;;;2.80;71.00;;;;;;5141945;27;20030;-69
2022/03/21 05:06:28;;;;;;;0.00;0.00;;;2.80;71.70;;;;;;5141980;27;20086;-69
2022/03/21 05:08:54;;;;;;;0.00;0.00;;;2.80;71.40;;;;;;5141806;27;20023;-77
2022/03/21 05:11:20;;;;;;;0.00;0.00;;;2.80;72.00;;;;;;5141623;27;20053;-68
2022/03/21 05:13:45;;;;;;;0.00;0.00;;;2.70;72.50;;;;;;5142194;27;20019;-70
2022/03/21 05:16:11;;;;;;;0.00;0.00;;;2.80;72.60;;;;;;5141514;27;20027;-69
2022/03/21 05:18:37;;;;;;;0.00;0.00;;;2.80;72.40;;;;;;5123629;27;20080;-69
2022/03/21 05:21:04;;;;;;;0.00;0.00;;;2.80;72.90;;;;;;5141602;27;20323;-68
2022/03/21 05:31:43;;;;;;;0.00;0.00;;;2.70;74.10;;;;;;5141786;27;20022;-69
2022/03/21 05:36:54;;;;;;;0.00;0.00;;;2.70;72.50;;;;;;5141929;27;20026;-70
2022/03/21 05:39:21;;;;;;;0.00;0.00;;;2.70;72.70;;;;;;5141151;27;20233;-69
2022/03/21 05:41:48;;;;;;;0.00;0.00;;;2.80;71.50;;;;;;5141448;27;20053;-70
2022/03/21 05:44:13;;;;;;;0.32;0.32;;;2.90;71.60;;;;;;5122288;27;20225;-76
2022/03/21 05:46:39;;;;;;;0.00;0.00;;;3.00;72.60;;;;;;5141682;27;20029;-69
2022/03/21 05:49:05;;;;;;;0.00;0.00;;;3.00;69.80;;;;;;5156487;27;20042;-69
2022/03/21 05:51:40;;;;;;;0.00;0.00;;;3.00;70.60;;;;;;5123258;27;20306;-69
2022/03/21 05:54:11;;;;;;;0.00;0.00;;;3.00;70.50;;;;;;5122284;27;20158;-69
2022/03/21 05:56:38;;;;;;;0.00;0.00;;;3.00;72.00;;;;;;5141046;27;20019;-70
2022/03/21 06:01:49;;;;;;;0.00;0.00;;;3.10;70.60;;;;;;5140924;27;20056;-69
2022/03/21 06:04:15;;;;;;;0.00;0.00;;;3.00;70.90;;;;;;5140378;27;20045;-69
2022/03/21 06:06:42;;;;;;;0.20;0.20;;;3.00;70.90;;;;;;5141114;27;20018;-70
2022/03/21 06:09:08;;;;;;;0.30;0.25;;;3.10;70.90;;;;;;5140062;27;20015;-70
2022/03/21 06:11:36;;;;;;;0.10;0.10;;;3.10;71.00;;;;;;5157347;27;20202;-72
2022/03/21 06:14:04;;;;;;;;;;;3.10;70.50;;;;;;5122887;27;20046;-69
2022/03/21 06:16:29;;;;;;;0.00;0.00;;;3.20;72.30;;;;;;5121074;27;19899;-73
2022/03/21 06:18:55;;;;;;;0.00;0.00;;;3.20;70.60;;;;;;5122468;27;20050;-67
2022/03/21 06:21:21;;;;;;;0.00;0.00;;;3.20;71.90;;;;;;5139246;27;20214;-69
2022/03/21 06:23:47;;;;;;;0.00;0.00;;;3.20;71.50;;;;;;5122144;27;20019;-73
2022/03/21 06:26:13;;;;;;;0.00;0.00;;;3.30;68.40;;;;;;5138390;27;20351;-68
2022/03/21 06:28:39;;;;;;;0.00;0.00;;;3.50;68.00;;;;;;5140587;27;20239;-72
2022/03/21 06:31:05;;;;;;;0.00;0.00;;;3.70;65.00;;;;;;5121890;27;20095;-73
2022/03/21 06:33:31;;;;;;;0.00;0.00;;;3.90;61.80;;;;;;5140592;27;20019;-70
2022/03/21 06:35:58;;;;;;;0.00;0.00;;;4.10;62.60;;;;;;5140482;27;20023;-77
2022/03/21 06:38:24;;;;;;;0.03;0.00;;;4.00;65.00;;;;;;5140243;28;20019;-72
2022/03/21 06:40:50;;;;;;;0.38;0.00;;;4.00;63.40;;;;;;5140645;28;20027;-71
2022/03/21 06:43:17;;;;;;;0.00;0.00;;;4.00;62.90;;;;;;5139308;28;20083;-73
2022/03/21 06:46:01;;;;;;;0.10;0.00;;;4.10;63.70;;;;;;5140529;28;20019;-70
2022/03/21 06:48:30;;;;;;;0.08;0.08;;;4.20;64.00;;;;;;5140212;28;20039;-71
2022/03/21 06:50:56;;;;;;;;;;;4.30;65.80;;;;;;5140826;28;20047;-70
2022/03/21 06:53:23;;;;;;;0.32;0.00;;;4.40;65.90;;;;;;5121228;28;19903;-69
2022/03/21 06:55:48;;;;;;;0.20;0.10;;;4.40;62.20;;;;;;5122177;28;20211;-72
2022/03/21 06:58:15;;;;;;;0.00;0.00;;;4.40;63.10;;;;;;5139459;28;20035;-69
2022/03/21 07:00:45;;;;;;;0.00;0.00;;;4.50;64.40;;;;;;5122350;28;20029;-69
2022/03/21 07:03:12;;;;;;;0.00;0.00;;;4.50;64.50;;;;;;5139896;28;20046;-70
2022/03/21 07:05:38;;;;;;;0.00;0.00;;;4.60;62.50;;;;;;5122357;28;20338;-70
2022/03/21 07:08:04;;;;;;;0.00;0.00;;;4.70;62.30;;;;;;5121248;28;20042;-78
2022/03/21 07:10:33;;;;;;;0.03;0.03;;;4.80;64.50;;;;;;5140562;28;20019;-69
2022/03/21 07:13:04;;;;;;;0.25;0.25;;;4.80;67.80;;;;;;5140058;28;20015;-70
2022/03/21 07:15:30;;;;;;;0.47;0.47;;;4.90;66.30;;;;;;5140459;28;20012;-70
2022/03/21 07:17:56;;;;;;;0.00;0.00;;;4.90;64.40;;;;;;5121877;28;20179;-70
2022/03/21 07:20:24;;;;;;;0.20;0.20;;;5.00;61.30;;;;;;5121230;28;20023;-72
2022/03/21 07:22:50;;;;;;;0.00;0.00;;;5.10;62.70;;;;;;5140123;28;20050;-69
2022/03/21 07:25:16;;;;;;;0.00;0.00;;;5.10;65.70;;;;;;5121149;28;20015;-72
2022/03/21 07:27:46;;;;;;;0.40;0.20;;;5.20;62.00;;;;;;5122143;28;20041;-69
2022/03/21 07:30:13;;;;;;;0.08;0.00;;;5.30;61.70;;;;;;5139554;28;20019;-69
2022/03/21 07:32:40;;;;;;;0.00;0.00;;;5.40;60.00;;;;;;5140427;28;20030;-69
2022/03/21 07:37:52;;;;;;;0.00;0.00;;;5.50;61.50;;;;;;5139930;28;20283;-70
2022/03/21 07:40:18;;;;;;;0.10;0.10;;;5.50;63.50;;;;;;5139563;28;20027;-70
2022/03/21 07:42:46;;;;;;;0.00;0.00;;;5.60;62.30;;;;;;5140100;28;20015;-75
2022/03/21 07:47:58;;;;;;;0.00;0.00;;;5.70;61.50;;;;;;5143677;27;20121;-70
2022/03/21 07:50:25;;;;;;;0.00;0.00;;;5.90;60.00;;;;;;5143364;27;20015;-71
2022/03/21 07:52:53;;;;;;;0.13;0.00;;;6.10;58.70;;;;;;5143809;27;20034;-69
2022/03/21 07:55:20;;;;;;;0.10;0.10;;;6.20;58.70;;;;;;5125089;27;20023;-69
2022/03/21 07:57:46;;;;;;;0.00;0.00;;;6.30;56.50;;;;;;5143122;27;20273;-69
2022/03/21 08:00:13;;;;;;;0.15;0.15;;;6.30;61.10;;;;;;5142958;27;20023;-72
2022/03/21 08:02:39;;;;;;;0.00;0.00;;;6.20;58.00;;;;;;5142711;27;20022;-76
2022/03/21 08:05:05;;;;;;;0.08;0.00;;;6.30;57.80;;;;;;5157428;27;20027;-78
2022/03/21 08:07:35;;;;;;;0.03;0.00;;;6.40;57.70;;;;;;5142638;27;20064;-71
2022/03/21 08:10:05;;;;;;;0.00;0.00;;;6.40;60.40;;;;;;5158997;27;20236;-69
2022/03/21 08:12:31;;;;;;;0.00;0.00;;;6.40;58.00;;;;;;5141897;27;20064;-70
2022/03/21 08:14:56;;;;;;;0.00;0.00;;;6.50;54.90;;;;;;5124443;27;20019;-69
2022/03/21 08:17:23;;;;;;;0.00;0.00;;;6.60;55.60;;;;;;5141854;27;20015;-70
2022/03/21 08:19:49;;;;;;;0.00;0.00;;;6.60;57.40;;;;;;5142020;27;20094;-70
2022/03/21 08:22:15;;;;;;;0.00;0.00;;;6.70;58.20;;;;;;5141113;27;20019;-78
2022/03/21 08:24:41;;;;;;;0.35;0.08;;;6.70;56.50;;;;;;5142286;27;20336;-70
2022/03/21 08:27:06;;;;;;;0.28;0.00;;;6.80;55.50;;;;;;5141477;27;20019;-72
2022/03/21 08:29:32;;;;;;;0.00;0.00;;;6.90;57.20;;;;;;5142295;27;20033;-70
2022/03/21 08:31:58;;;;;;;0.00;0.00;;;7.10;55.10;;;;;;5158421;27;20023;-71
2022/03/21 08:34:24;;;;;;;0.00;0.00;;;7.10;56.50;;;;;;5141739;27;20367;-72
2022/03/21 08:36:50;;;;;;;0.00;0.00;;;7.10;56.90;;;;;;5158252;27;20299;-70
2022/03/21 08:39:16;;;;;;;0.30;0.00;;;7.10;58.70;;;;;;5141490;27;20321;-70
2022/03/21 08:41:42;;;;;;;0.00;0.00;;;7.00;57.40;;;;;;5142398;27;20023;-70
2022/03/21 08:44:07;;;;;;;1.85;0.43;;;7.10;56.20;;;;;;5141489;27;20099;-79
2022/03/21 08:46:33;;;;;;;0.00;0.00;;;7.20;54.20;;;;;;5141344;27;20019;-70
2022/03/21 08:51:43;;;;;;;0.00;0.00;;;7.30;54.10;;;;;;5141986;27;20263;-74
2022/03/21 08:54:10;;;;;;;0.20;0.20;;;7.40;56.90;;;;;;5141805;27;20290;-75
2022/03/21 08:56:36;;;;;;;0.05;0.05;;;7.50;54.00;;;;;;5136210;27;20083;-77
2022/03/21 08:59:02;;;;;;;0.00;0.00;;;7.50;54.20;;;;;;5140135;27;20183;-70
2022/03/21 09:01:28;;;;;;;0.00;0.00;;;7.60;53.20;;;;;;5139168;27;20023;-69
2022/03/21 09:03:56;;;;;;;0.00;0.00;;;7.70;53.10;;;;;;5140680;27;20015;-73
2022/03/21 09:06:22;;;;;;;0.00;0.00;;;7.70;52.20;;;;;;5121509;27;20064;-71
2022/03/21 09:08:49;;;;;;;0.00;0.00;;;7.80;52.30;;;;;;5155362;27;20027;-70
2022/03/21 09:11:17;;;;;;;0.00;0.00;;;7.90;52.30;;;;;;5120614;27;20351;-79
2022/03/21 09:13:47;;;;;;;0.00;0.00;;;7.90;50.10;;;;;;5139352;27;20026;-71
2022/03/21 09:16:14;;;;;;;0.00;0.00;;;8.00;50.60;;;;;;5114935;27;20023;-70
2022/03/21 09:18:41;;;;;;;0.00;0.00;;;8.10;50.50;;;;;;5121226;27;20102;-71
2022/03/21 09:21:07;;;;;;;0.00;0.00;;;8.10;51.70;;;;;;5138728;27;20034;-74
2022/03/21 09:23:33;;;;;;;0.10;0.00;;;8.10;49.70;;;;;;5121706;27;20290;-78
2022/03/21 09:26:00;;;;;;;0.00;0.00;;;8.30;51.10;;;;;;5139097;27;20025;-76
2022/03/21 09:28:30;;;;;;;0.10;0.00;;;8.30;47.60;;;;;;5138628;27;20019;-76
2022/03/21 09:30:55;;;;;;;13.35;0.50;;;8.30;50.00;;;;;;5139149;27;20019;-77
2022/03/21 09:33:22;;;;;;;0.00;0.00;;;8.40;48.80;;;;;;5138689;27;20015;-69
2022/03/21 09:35:47;;;;;;;0.00;0.00;;;8.40;50.40;;;;;;5120447;27;20045;-70
2022/03/21 09:38:14;;;;;;;0.00;0.00;;;8.30;53.20;;;;;;5138292;27;20023;-69
2022/03/21 09:40:42;;;;;;;0.00;0.00;;;8.30;49.80;;;;;;5138680;27;20033;-69
2022/03/21 09:43:08;;;;;;;0.00;0.00;;;8.30;52.30;;;;;;5138244;27;20023;-79
2022/03/21 09:45:35;;;;;;;0.00;0.00;;;8.50;52.00;;;;;;5121071;27;20148;-76
2022/03/21 09:48:08;;;;;;;0.10;0.10;;;8.60;52.10;;;;;;5119929;27;20309;-69
2022/03/21 09:50:36;;;;;;;0.10;0.00;;;8.60;48.70;;;;;;5120825;27;20038;-75
2022/03/21 09:53:03;;;;;;;0.00;0.00;;;8.70;47.00;;;;;;5120233;27;20015;-70
2022/03/21 09:55:29;;;;;;;0.00;0.00;;;8.80;50.00;;;;;;5138620;27;20047;-70
2022/03/21 09:57:55;;;;;;;0.00;0.00;;;8.80;47.10;;;;;;5120591;27;20023;-76
2022/03/21 10:00:21;;;;;;;0.00;0.00;;;8.80;50.80;;;;;;5154468;27;20293;-70
2022/03/21 10:02:47;;;;;;;0.10;0.00;;;8.70;50.50;;;;;;5138337;27;20019;-69
2022/03/21 10:05:41;;;;;;;0.00;0.00;;;8.90;47.50;;;;;;5119679;27;20019;-71
2022/03/21 10:08:28;;;;;;;0.00;0.00;;;9.00;47.60;;;;;;5119094;27;20039;-78
2022/03/21 10:11:00;;;;;;;0.00;0.00;;;8.90;51.90;;;;;;5138429;27;20129;-73
2022/03/21 10:13:28;;;;;;;0.00;0.00;;;8.90;49.70;;;;;;5119474;27;20023;-75
2022/03/21 10:16:16;;;;;;;0.00;0.00;;;9.00;48.50;;;;;;5120228;27;20122;-76
2022/03/21 10:18:53;;;;;;;0.20;0.20;;;9.10;45.90;;;;;;5138453;27;20295;-69
2022/03/21 10:21:38;;;;;;;0.10;0.00;;;9.10;49.50;;;;;;5119245;27;20030;-71
2022/03/21 10:24:06;;;;;;;0.00;0.00;;;9.20;48.70;;;;;;5137325;27;20026;-76
2022/03/21 10:26:35;;;;;;;0.00;0.00;;;9.20;49.40;;;;;;5138409;27;20019;-69
2022/03/21 10:29:02;;;;;;;;;;;9.30;44.50;;;;;;5119853;27;20023;-70
2022/03/21 10:31:38;;;;;;;0.00;0.00;;;9.40;46.20;;;;;;5119550;27;19906;-75
2022/03/21 10:34:11;;;;;;;0.00;0.00;;;9.40;48.00;;;;;;5119501;28;20198;-76
2022/03/21 10:37:07;;;;;;;0.00;0.00;;;9.50;46.40;;;;;;5138014;27;20078;-73
2022/03/21 10:39:39;;;;;;;0.00;0.00;;;10.20;56.40;;;;;;5138573;27;20019;-75
2022/03/21 10:42:09;;;;;;;0.00;0.00;;;11.60;47.80;;;;;;5119321;28;20064;-77
2022/03/21 10:44:36;;;;;;;0.00;0.00;;;12.70;46.60;;;;;;5119782;28;20015;-76
2022/03/21 10:47:05;;;;;;;0.00;0.00;;;13.60;50.50;;;;;;5137771;28;20306;-75
2022/03/21 10:49:41;;;;;;;0.00;0.00;;;14.40;48.20;;;;;;5138463;28;20105;-70
2022/03/21 10:52:08;;;;;;;0.00;0.00;;;15.20;51.80;;;;;;5137627;28;20015;-69
2022/03/21 10:54:50;;;;;;;0.00;0.00;;;15.30;40.30;;;;;;5138246;28;20020;-76
2022/03/21 10:57:31;;;;;;;0.00;0.00;;;15.00;42.30;;;;;;5137475;28;20023;-72
2022/03/21 11:00:12;;;;;;;0.00;0.00;;;15.20;42.40;;;;;;5119457;28;20081;-77
2022/03/21 11:02:51;;;;;;;0.00;0.00;;;15.50;43.60;;;;;;5137969;28;20018;-78
2022/03/21 11:05:18;;;;;;;0.00;0.00;;;15.80;42.90;;;;;;5137379;28;20023;-71
2022/03/21 11:07:45;;;;;;;0.00;0.00;;;15.70;42.80;;;;;;5138878;28;20367;-72
2022/03/21 11:10:12;;;;;;;0.00;0.00;;;16.00;41.70;;;;;;5137060;28;20290;-73
2022/03/21 11:12:41;;;;;;;0.00;0.00;;;16.20;44.60;;;;;;5137631;28;20076;-69
2022/03/21 11:15:12;;;;;;;0.00;0.00;;;15.90;44.40;;;;;;5118745;28;20050;-72
2022/03/21 11:17:38;;;;;;;0.00;0.00;;;15.60;45.30;;;;;;5119367;28;20351;-69
2022/03/21 11:20:05;;;;;;;0.00;0.00;;;15.60;40.30;;;;;;5118821;27;20031;-77
2022/03/21 11:22:36;;;;;;;0.00;0.00;;;15.60;38.20;;;;;;5123469;27;20039;-71
2022/03/21 11:25:04;;;;;;;0.00;0.00;;;16.30;43.70;;;;;;5123577;27;20019;-70
2022/03/21 11:27:45;;;;;;;;;;;16.20;40.60;;;;;;5157945;27;20090;-72
2022/03/21 11:33:20;;;;;;;0.00;0.00;;;16.00;41.30;;;;;;5140889;27;20072;-77
2022/03/21 11:36:00;;;;;;;0.00;0.00;;;16.10;39.30;;;;;;5122842;27;20060;-71
2022/03/21 11:38:28;;;;;;;0.00;0.00;;;16.40;39.80;;;;;;5122684;27;20096;-74
2022/03/21 11:41:12;;;;;;;0.00;0.00;;;16.70;42.10;;;;;;5141374;27;20229;-78
2022/03/21 11:43:43;;;;;;;0.00;0.00;;;16.40;41.30;;;;;;5122479;27;20025;-70
2022/03/21 11:46:29;;;;;;;0.00;0.00;;;16.00;39.90;;;;;;5122434;27;20308;-77
2022/03/21 11:49:13;;;;;;;0.00;0.00;;;15.60;42.30;;;;;;5140713;27;20220;-77
2022/03/21 11:51:41;;;;;;;0.00;0.00;;;15.50;42.20;;;;;;5140856;27;20027;-73
2022/03/21 11:54:26;;;;;;;0.00;0.00;;;15.40;42.70;;;;;;5122044;27;20038;-76
2022/03/21 11:56:55;;;;;;;0.00;0.00;;;15.10;38.70;;;;;;5141368;27;20015;-73
2022/03/21 11:59:33;;;;;;;0.00;0.00;;;14.80;39.80;;;;;;5140545;27;20018;-71
2022/03/21 12:02:07;;;;;;;0.00;0.00;;;14.70;38.50;;;;;;5122567;27;20102;-76
2022/03/21 12:04:33;;;;;;;0.00;0.00;;;14.70;38.90;;;;;;5122118;27;20090;-73
2022/03/21 12:07:14;;;;;;;0.00;0.00;;;14.70;36.90;;;;;;5140778;27;20030;-77
2022/03/21 12:09:45;;;;;;;0.00;0.00;;;14.70;39.80;;;;;;5122729;27;20291;-78
2022/03/21 12:12:19;;;;;;;0.00;0.00;;;14.60;37.90;;;;;;5121783;27;20023;-70
2022/03/21 12:14:54;;;;;;;0.00;0.00;;;14.50;40.50;;;;;;5140666;27;20046;-70
2022/03/21 12:17:23;;;;;;;0.00;0.00;;;14.40;37.00;;;;;;5122059;27;20447;-70
2022/03/21 12:19:48;;;;;;;0.00;0.00;;;14.30;40.30;;;;;;5140975;27;20035;-70
2022/03/21 12:24:58;;;;;;;0.00;0.00;;;14.10;41.40;;;;;;5140496;27;20056;-78
2022/03/21 12:27:46;;;;;;;0.00;0.00;;;14.10;44.30;;;;;;5139747;27;20042;-76
2022/03/21 12:30:30;;;;;;;0.00;0.00;;;14.10;42.60;;;;;;5139838;27;20179;-70
2022/03/21 12:32:59;;;;;;;0.00;0.00;;;14.00;43.90;;;;;;5120868;27;20099;-72
2022/03/21 12:35:40;;;;;;;0.00;0.00;;;13.90;37.30;;;;;;5121511;27;20019;-73
2022/03/21 12:38:10;;;;;;;0.00;0.00;;;13.70;42.20;;;;;;5121636;27;20306;-77
2022/03/21 12:40:50;;;;;;;0.00;0.00;;;13.50;37.20;;;;;;5122171;27;20095;-77
2022/03/21 12:43:27;;;;;;;0.00;0.00;;;13.20;39.70;;;;;;5136130;27;20019;-69
2022/03/21 12:46:14;;;;;;;0.00;0.00;;;13.00;35.60;;;;;;5121405;27;20026;-73
2022/03/21 12:48:44;;;;;;;0.00;0.00;;;12.90;38.70;;;;;;5140049;27;20201;-70
2022/03/21 12:51:13;;;;;;;0.00;0.00;;;12.80;38.20;;;;;;5139491;27;20030;-68
2022/03/21 12:53:47;;;;;;;0.00;0.00;;;12.70;36.70;;;;;;5121285;27;20294;-75
2022/03/21 12:56:15;;;;;;;0.00;0.00;;;12.60;41.10;;;;;;5139509;27;20015;-71
2022/03/21 12:58:45;;;;;;;0.00;0.00;;;12.60;41.20;;;;;;5140028;27;20019;-71
2022/03/21 13:01:20;;;;;;;0.00;0.00;;;12.40;44.10;;;;;;5139501;27;20031;-76
2022/03/21 13:03:47;;;;;;;0.00;0.00;;;12.30;41.30;;;;;;5121234;27;20086;-73
2022/03/21 13:11:50;;;;;;;0.00;0.00;;;12.50;38.10;;;;;;5139136;27;20095;-76
2022/03/21 13:14:18;;;;;;;0.00;0.00;;;12.50;41.70;;;;;;5138827;27;20281;-76
2022/03/21 13:17:02;;;;;;;0.00;0.00;;;12.50;40.40;;;;;;5121259;27;20411;-80
2022/03/21 13:19:32;;;;;;;0.00;0.00;;;12.50;39.30;;;;;;5120369;27;20218;-74
2022/03/21 13:22:09;;;;;;;0.00;0.00;;;12.40;40.00;;;;;;5120409;27;20037;-77
2022/03/21 13:24:43;;;;;;;0.00;0.00;;;12.30;39.50;;;;;;5138970;27;20039;-78
2022/03/21 13:27:16;;;;;;;0.00;0.00;;;12.30;37.90;;;;;;5138009;27;20026;-72
2022/03/21 13:29:50;;;;;;;0.00;0.00;;;12.20;40.50;;;;;;5138176;27;20027;-70
2022/03/21 13:32:17;;;;;;;0.00;0.00;;;12.20;39.70;;;;;;5136851;27;20041;-68
2022/03/21 13:34:53;;;;;;;0.00;0.00;;;12.20;38.80;;;;;;5120129;27;20090;-72
2022/03/21 13:37:24;;;;;;;0.00;0.00;;;12.20;43.50;;;;;;5119925;27;20015;-73
2022/03/21 13:40:11;;;;;;;0.00;0.00;;;12.10;44.00;;;;;;5139154;27;20043;-69
2022/03/21 13:42:37;;;;;;;0.00;0.00;;;12.10;37.80;;;;;;5134092;27;20015;-74